Kydon — SWBZ — position and weather

sailwx.info

Track history (hours):
 
Tides and Currents Weather Stations Pressure Air Temp Water Temp Dewpoint Dewpoint Depression Visibility Wind Speed Wind Dir Waves Ship Positions

Kydon

Last reported at 2016-Jun-28 23:33 UTC. Time now 2016-Jun-29 12:54 UTC.
Position N 36°24' E 024°03'.

Length 192 m; draft 6.1 m.

Type: Passenger vessel. MMSI: 239593000.

Date/timePositionNaut miles runAvg speedWind from/ knotsBaromVisibWave heightAir tempDewpointWater temp
2016-Jun-28 23:33N 36°24' E 024°03'1918.9
2016-Jun-28 22:33N 36°43' E 023°59'1918.9
2016-Jun-28 21:33N 37°02' E 023°54'1919.4
2016-Jun-28 20:33N 37°20' E 023°48'1919.0
2016-Jun-28 19:34N 37°39' E 023°42'1817.8
2016-Jun-28 18:34N 37°56' E 023°37'1 1.3
2016-Jun-28 17:33N 37°57' E 023°38'0 0.0
2016-Jun-28 16:33N 37°57' E 023°38'0 0.0
2016-Jun-28 15:33N 37°57' E 023°38'0 0.0
2016-Jun-28 14:33N 37°57' E 023°38'0 0.0
2016-Jun-28 13:33N 37°57' E 023°38'0 0.0
2016-Jun-28 12:33N 37°57' E 023°38'0 0.0
2016-Jun-28 11:33N 37°57' E 023°38'0 0.0
2016-Jun-28 10:33N 37°57' E 023°38'0 0.0
2016-Jun-28 09:33N 37°57' E 023°38'0 0.0
2016-Jun-28 08:33N 37°57' E 023°38'0 0.0
2016-Jun-28 07:33N 37°57' E 023°38'0 0.0
2016-Jun-28 04:33N 37°57' E 023°38'0 0.0
2016-Jun-28 03:33N 37°57' E 023°38'2 1.9
2016-Jun-28 02:33N 37°55' E 023°37'1717.1
2016-Jun-28 01:33N 37°40' E 023°46'1918.9
2016-Jun-28 00:33N 37°21' E 023°49'1818.6
2016-Jun-27 23:34N 37°03' E 023°53'1918.9
2016-Jun-27 22:34N 36°44' E 023°58'1918.9
2016-Jun-27 21:33N 36°26' E 024°03'53 2.1
2016-Jun-26 20:34N 37°18' E 023°50'1919.0
2016-Jun-26 19:33N 37°36' E 023°43'1818.6
2016-Jun-26 18:34N 37°54' E 023°37'3 3.2
2016-Jun-26 17:33N 37°57' E 023°38'0 0.0
2016-Jun-26 16:33N 37°57' E 023°38'0 0.0
2016-Jun-26 15:33N 37°57' E 023°38'0 0.0
2016-Jun-26 14:33N 37°57' E 023°38'0 0.0
2016-Jun-26 13:33N 37°57' E 023°38'0 0.0
2016-Jun-26 12:33N 37°57' E 023°38'0 0.0
2016-Jun-26 11:33N 37°57' E 023°38'0 0.0
2016-Jun-26 10:33N 37°57' E 023°38'0 0.0
2016-Jun-26 09:33N 37°57' E 023°38'0 0.0
2016-Jun-26 08:33N 37°57' E 023°38'0 0.0
2016-Jun-26 07:33N 37°57' E 023°38'0 0.0
2016-Jun-26 06:33N 37°57' E 023°38'0 0.0
2016-Jun-26 05:33N 37°57' E 023°38'0 0.0
2016-Jun-26 04:33N 37°57' E 023°38'0 0.0
2016-Jun-26 03:33N 37°57' E 023°38'1 1.4
2016-Jun-26 02:34N 37°56' E 023°37'1717.2
2016-Jun-26 01:34N 37°40' E 023°46'1918.8
2016-Jun-26 00:33N 37°21' E 023°48'1 0.0
2016-Jun-24 20:33N 37°21' E 023°48'1919.3
2016-Jun-24 19:33N 37°39' E 023°42'1717.5
2016-Jun-24 18:34N 37°56' E 023°38'1 0.7
2016-Jun-24 17:33N 37°57' E 023°38'0 0.0
2016-Jun-24 16:33N 37°57' E 023°38'0 0.0
2016-Jun-24 15:33N 37°57' E 023°38'0 0.0
2016-Jun-24 14:33N 37°57' E 023°38'0 0.0
2016-Jun-24 13:33N 37°57' E 023°38'0 0.0
2016-Jun-24 12:33N 37°57' E 023°38'0 0.0
2016-Jun-24 11:33N 37°57' E 023°38'0 0.0
2016-Jun-24 10:33N 37°57' E 023°38'0 0.0
2016-Jun-24 09:33N 37°57' E 023°38'0 0.0
2016-Jun-24 08:33N 37°57' E 023°38'0 0.0
2016-Jun-24 07:33N 37°57' E 023°38'0 0.0
2016-Jun-24 04:33N 37°57' E 023°38'0 0.0
2016-Jun-24 03:33N 37°57' E 023°38'2 1.7
2016-Jun-24 02:34N 37°56' E 023°36'1817.8
2016-Jun-24 01:33N 37°40' E 023°46'1918.9
2016-Jun-24 00:33N 37°21' E 023°50'14 0.5
2016-Jun-22 21:07N 37°07' E 023°52'1219.1
2016-Jun-22 20:30N 37°19' E 023°49'1819.0
2016-Jun-22 19:34N 37°36' E 023°43'1918.7
2016-Jun-22 18:33N 37°54' E 023°37'3 3.1
2016-Jun-22 17:33N 37°57' E 023°38'0 0.0
2016-Jun-22 16:33N 37°57' E 023°38'0 0.0
2016-Jun-22 15:33N 37°57' E 023°38'0 0.0
2016-Jun-22 14:33N 37°57' E 023°38'0 0.0
2016-Jun-22 13:33N 37°57' E 023°38'0 0.0
2016-Jun-22 12:33N 37°57' E 023°38'0 0.0
2016-Jun-22 11:33N 37°57' E 023°38'0 0.0
2016-Jun-22 10:33N 37°57' E 023°38'0 0.0
2016-Jun-22 09:33N 37°57' E 023°38'0 0.0
2016-Jun-22 08:33N 37°57' E 023°38'0 0.0
2016-Jun-22 07:33N 37°57' E 023°38'0 0.0
2016-Jun-22 06:33N 37°57' E 023°38'0 0.0
2016-Jun-22 05:33N 37°57' E 023°38'0 0.0
2016-Jun-22 04:33N 37°57' E 023°38'0 0.0
2016-Jun-22 03:33N 37°57' E 023°38'2 2.4
2016-Jun-22 02:34N 37°55' E 023°37'1919.3
2016-Jun-22 01:33N 37°37' E 023°47'1918.7
2016-Jun-22 00:33N 37°18' E 023°50'1 0.0
2016-Jun-20 20:33N 37°18' E 023°49'1919.2
2016-Jun-20 19:33N 37°37' E 023°43'1918.9
2016-Jun-20 18:34N 37°55' E 023°37'2 2.2
2016-Jun-20 17:33N 37°57' E 023°38'0 0.0
2016-Jun-20 16:33N 37°57' E 023°38'0 0.0
2016-Jun-20 15:33N 37°57' E 023°38'0 0.0
2016-Jun-20 14:33N 37°57' E 023°38'0 0.0
2016-Jun-20 13:33N 37°57' E 023°38'0 0.0
2016-Jun-20 12:33N 37°57' E 023°38'0 0.0
2016-Jun-20 11:33N 37°57' E 023°38'0 0.0
2016-Jun-20 10:34N 37°57' E 023°38'0 0.0
2016-Jun-20 09:33N 37°57' E 023°38'0 0.0
2016-Jun-20 08:34N 37°57' E 023°38'0 0.0
2016-Jun-20 07:33N 37°57' E 023°38'0 0.0
2016-Jun-20 06:33N 37°57' E 023°38'0 0.0
2016-Jun-20 05:34N 37°57' E 023°38'0 0.0
2016-Jun-20 04:34N 37°57' E 023°38'0 0.0
2016-Jun-20 03:34N 37°57' E 023°38'1 1.2
2016-Jun-20 02:34N 37°56' E 023°37'1717.1
2016-Jun-20 01:33N 37°40' E 023°46'1918.8
2016-Jun-20 00:33N 37°22' E 023°50'1818.4
2016-Jun-19 23:33N 37°04' E 023°54'1919.0
2016-Jun-19 22:33N 36°45' E 024°00'  
Track history (hours):
 
Tides and Currents Weather Stations Pressure Air Temp Water Temp Dewpoint Dewpoint Depression Visibility Wind Speed Wind Dir Waves Ship Positions

Kydon

Last reported at 2016-Jun-28 23:33 UTC. Time now 2016-Jun-29 12:54 UTC.
Position N 36°24' E 024°03'.

Length 192 m; draft 6.1 m.

Type: Passenger vessel. MMSI: 239593000.

Date/timePositionNaut miles runAvg speedWind from/ knotsBaromVisibWave heightAir tempDewpointWater temp
2016-Jun-28 23:33N 36°24' E 024°03'1918.9
2016-Jun-28 22:33N 36°43' E 023°59'1918.9
2016-Jun-28 21:33N 37°02' E 023°54'1919.4
2016-Jun-28 20:33N 37°20' E 023°48'1919.0
2016-Jun-28 19:34N 37°39' E 023°42'1817.8
2016-Jun-28 18:34N 37°56' E 023°37'1 1.3
2016-Jun-28 17:33N 37°57' E 023°38'0 0.0
2016-Jun-28 16:33N 37°57' E 023°38'0 0.0
2016-Jun-28 15:33N 37°57' E 023°38'0 0.0
2016-Jun-28 14:33N 37°57' E 023°38'0 0.0
2016-Jun-28 13:33N 37°57' E 023°38'0 0.0
2016-Jun-28 12:33N 37°57' E 023°38'0 0.0
2016-Jun-28 11:33N 37°57' E 023°38'0 0.0
2016-Jun-28 10:33N 37°57' E 023°38'0 0.0
2016-Jun-28 09:33N 37°57' E 023°38'0 0.0
2016-Jun-28 08:33N 37°57' E 023°38'0 0.0
2016-Jun-28 07:33N 37°57' E 023°38'0 0.0
2016-Jun-28 04:33N 37°57' E 023°38'0 0.0
2016-Jun-28 03:33N 37°57' E 023°38'2 1.9
2016-Jun-28 02:33N 37°55' E 023°37'1717.1
2016-Jun-28 01:33N 37°40' E 023°46'1918.9
2016-Jun-28 00:33N 37°21' E 023°49'1818.6
2016-Jun-27 23:34N 37°03' E 023°53'1918.9
2016-Jun-27 22:34N 36°44' E 023°58'1918.9
2016-Jun-27 21:33N 36°26' E 024°03'53 2.1
2016-Jun-26 20:34N 37°18' E 023°50'1919.0
2016-Jun-26 19:33N 37°36' E 023°43'1818.6
2016-Jun-26 18:34N 37°54' E 023°37'3 3.2
2016-Jun-26 17:33N 37°57' E 023°38'0 0.0
2016-Jun-26 16:33N 37°57' E 023°38'0 0.0
2016-Jun-26 15:33N 37°57' E 023°38'0 0.0
2016-Jun-26 14:33N 37°57' E 023°38'0 0.0
2016-Jun-26 13:33N 37°57' E 023°38'0 0.0
2016-Jun-26 12:33N 37°57' E 023°38'0 0.0
2016-Jun-26 11:33N 37°57' E 023°38'0 0.0
2016-Jun-26 10:33N 37°57' E 023°38'0 0.0
2016-Jun-26 09:33N 37°57' E 023°38'0 0.0
2016-Jun-26 08:33N 37°57' E 023°38'0 0.0
2016-Jun-26 07:33N 37°57' E 023°38'0 0.0
2016-Jun-26 06:33N 37°57' E 023°38'0 0.0
2016-Jun-26 05:33N 37°57' E 023°38'0 0.0
2016-Jun-26 04:33N 37°57' E 023°38'0 0.0
2016-Jun-26 03:33N 37°57' E 023°38'1 1.4
2016-Jun-26 02:34N 37°56' E 023°37'1717.2
2016-Jun-26 01:34N 37°40' E 023°46'1918.8
2016-Jun-26 00:33N 37°21' E 023°48'1 0.0
2016-Jun-24 20:33N 37°21' E 023°48'1919.3
2016-Jun-24 19:33N 37°39' E 023°42'1717.5
2016-Jun-24 18:34N 37°56' E 023°38'1 0.7
2016-Jun-24 17:33N 37°57' E 023°38'0 0.0
2016-Jun-24 16:33N 37°57' E 023°38'0 0.0
2016-Jun-24 15:33N 37°57' E 023°38'0 0.0
2016-Jun-24 14:33N 37°57' E 023°38'0 0.0
2016-Jun-24 13:33N 37°57' E 023°38'0 0.0
2016-Jun-24 12:33N 37°57' E 023°38'0 0.0
2016-Jun-24 11:33N 37°57' E 023°38'0 0.0
2016-Jun-24 10:33N 37°57' E 023°38'0 0.0
2016-Jun-24 09:33N 37°57' E 023°38'0 0.0
2016-Jun-24 08:33N 37°57' E 023°38'0 0.0
2016-Jun-24 07:33N 37°57' E 023°38'0 0.0
2016-Jun-24 04:33N 37°57' E 023°38'0 0.0
2016-Jun-24 03:33N 37°57' E 023°38'2 1.7
2016-Jun-24 02:34N 37°56' E 023°36'1817.8
2016-Jun-24 01:33N 37°40' E 023°46'1918.9
2016-Jun-24 00:33N 37°21' E 023°50'14 0.5
2016-Jun-22 21:07N 37°07' E 023°52'1219.1
2016-Jun-22 20:30N 37°19' E 023°49'1819.0
2016-Jun-22 19:34N 37°36' E 023°43'1918.7
2016-Jun-22 18:33N 37°54' E 023°37'3 3.1
2016-Jun-22 17:33N 37°57' E 023°38'0 0.0
2016-Jun-22 16:33N 37°57' E 023°38'0 0.0
2016-Jun-22 15:33N 37°57' E 023°38'0 0.0
2016-Jun-22 14:33N 37°57' E 023°38'0 0.0
2016-Jun-22 13:33N 37°57' E 023°38'0 0.0
2016-Jun-22 12:33N 37°57' E 023°38'0 0.0
2016-Jun-22 11:33N 37°57' E 023°38'0 0.0
2016-Jun-22 10:33N 37°57' E 023°38'0 0.0
2016-Jun-22 09:33N 37°57' E 023°38'0 0.0
2016-Jun-22 08:33N 37°57' E 023°38'0 0.0
2016-Jun-22 07:33N 37°57' E 023°38'0 0.0
2016-Jun-22 06:33N 37°57' E 023°38'0 0.0
2016-Jun-22 05:33N 37°57' E 023°38'0 0.0
2016-Jun-22 04:33N 37°57' E 023°38'0 0.0
2016-Jun-22 03:33N 37°57' E 023°38'2 2.4
2016-Jun-22 02:34N 37°55' E 023°37'1919.3
2016-Jun-22 01:33N 37°37' E 023°47'1918.7
2016-Jun-22 00:33N 37°18' E 023°50'1 0.0
2016-Jun-20 20:33N 37°18' E 023°49'1919.2
2016-Jun-20 19:33N 37°37' E 023°43'1918.9
2016-Jun-20 18:34N 37°55' E 023°37'2 2.2
2016-Jun-20 17:33N 37°57' E 023°38'0 0.0
2016-Jun-20 16:33N 37°57' E 023°38'0 0.0
2016-Jun-20 15:33N 37°57' E 023°38'0 0.0
2016-Jun-20 14:33N 37°57' E 023°38'0 0.0
2016-Jun-20 13:33N 37°57' E 023°38'0 0.0
2016-Jun-20 12:33N 37°57' E 023°38'0 0.0
2016-Jun-20 11:33N 37°57' E 023°38'0 0.0
2016-Jun-20 10:34N 37°57' E 023°38'0 0.0
2016-Jun-20 09:33N 37°57' E 023°38'0 0.0
2016-Jun-20 08:34N 37°57' E 023°38'0 0.0
2016-Jun-20 07:33N 37°57' E 023°38'0 0.0
2016-Jun-20 06:33N 37°57' E 023°38'0 0.0
2016-Jun-20 05:34N 37°57' E 023°38'0 0.0
2016-Jun-20 04:34N 37°57' E 023°38'0 0.0
2016-Jun-20 03:34N 37°57' E 023°38'1 1.2
2016-Jun-20 02:34N 37°56' E 023°37'1717.1
2016-Jun-20 01:33N 37°40' E 023°46'1918.8
2016-Jun-20 00:33N 37°22' E 023°50'1818.4
2016-Jun-19 23:33N 37°04' E 023°54'1919.0
2016-Jun-19 22:33N 36°45' E 024°00'  

Dump ship's entire track history